Time;durP1;ratioP1;P1;durP2;ratioP2;P2;SDS_P1;SDS_P2;PMS_P1;PMS_P2;Temp;Humidity;BMP_temperature;BMP_pressure;BME280_temperature;BME280_humidity;BME280_pressure;Samples;Min_cycle;Max_cycle;Signal;HPM_P1;HPM_P2
2022/07/08 00:02:21;;;;;;;5.82;2.70;;;24.70;99.90;;;;;;4854947;29;20130;-77
2022/07/08 00:04:48;;;;;;;7.30;3.38;;;24.80;99.90;;;;;;4858232;29;20049;-75
2022/07/08 00:07:16;;;;;;;5.85;2.40;;;24.80;99.90;;;;;;4830048;29;20060;-77
2022/07/08 00:09:41;;;;;;;4.00;2.10;;;24.70;99.90;;;;;;4863553;29;20053;-72
2022/07/08 00:12:07;;;;;;;6.72;2.50;;;24.60;99.90;;;;;;4857506;29;20038;-73
2022/07/08 00:14:35;;;;;;;8.23;2.38;;;24.50;99.90;;;;;;4855645;29;20036;-78
2022/07/08 00:17:01;;;;;;;6.55;2.90;;;24.50;99.90;;;;;;4855419;29;20452;-73
2022/07/08 00:19:28;;;;;;;11.35;2.50;;;24.50;99.90;;;;;;4853119;29;20467;-77
2022/07/08 00:21:55;;;;;;;5.38;2.40;;;24.50;99.90;;;;;;4855319;29;20496;-75
2022/07/08 00:24:20;;;;;;;6.60;2.50;;;24.50;99.90;;;;;;4852169;29;20100;-74
2022/07/08 00:26:47;;;;;;;6.78;3.05;;;24.50;99.90;;;;;;4851168;29;20041;-77
2022/07/08 00:29:14;;;;;;;7.22;2.60;;;24.50;99.90;;;;;;4837575;29;20076;-76
2022/07/08 00:31:40;;;;;;;7.30;3.00;;;24.60;99.90;;;;;;4859724;29;20442;-74
2022/07/08 00:34:07;;;;;;;11.75;3.50;;;24.70;99.90;;;;;;4852191;29;20034;-81
2022/07/08 00:36:35;;;;;;;8.05;2.63;;;24.60;99.90;;;;;;4857616;29;20029;-74
2022/07/08 00:39:02;;;;;;;5.05;2.47;;;24.70;99.90;;;;;;4853456;29;20041;-75
2022/07/08 00:41:30;;;;;;;6.07;2.55;;;24.70;99.90;;;;;;4854025;29;20056;-78
2022/07/08 00:43:57;;;;;;;11.27;2.60;;;24.70;99.90;;;;;;4854867;29;20045;-75
2022/07/08 00:46:24;;;;;;;7.25;2.65;;;24.60;99.90;;;;;;4842343;29;20457;-78
2022/07/08 00:48:50;;;;;;;8.70;2.50;;;24.70;99.90;;;;;;4835633;29;20375;-73
2022/07/08 00:51:21;;;;;;;6.63;2.50;;;24.70;99.90;;;;;;4856050;29;20044;-76
2022/07/08 00:53:51;;;;;;;9.77;2.60;;;24.70;99.90;;;;;;4853705;29;20048;-74
2022/07/08 00:56:18;;;;;;;6.38;2.60;;;24.60;99.90;;;;;;4856889;29;20045;-74
2022/07/08 00:58:47;;;;;;;7.55;2.65;;;24.70;99.90;;;;;;4844483;29;20136;-77
2022/07/08 01:01:13;;;;;;;7.78;2.55;;;24.70;99.90;;;;;;4855329;29;20037;-75
2022/07/08 01:03:48;;;;;;;6.55;2.20;;;24.60;99.90;;;;;;4852588;29;20097;-79
2022/07/08 01:06:16;;;;;;;8.05;2.35;;;24.60;99.90;;;;;;4850989;29;20050;-75
2022/07/08 01:08:43;;;;;;;9.23;2.70;;;24.70;99.90;;;;;;4870120;29;20041;-78
2022/07/08 01:11:09;;;;;;;3.85;2.05;;;24.60;99.90;;;;;;4840049;29;20034;-74
2022/07/08 01:13:37;;;;;;;7.00;2.85;;;24.60;99.90;;;;;;4850993;29;20041;-75
2022/07/08 01:16:04;;;;;;;7.07;2.45;;;24.50;99.90;;;;;;4860746;29;20876;-73
2022/07/08 01:18:31;;;;;;;7.15;2.33;;;24.50;99.90;;;;;;4851631;29;20042;-77
2022/07/08 01:20:58;;;;;;;4.75;2.25;;;24.40;99.90;;;;;;4835908;29;20098;-74
2022/07/08 01:23:25;;;;;;;4.45;2.15;;;24.40;99.90;;;;;;4858980;29;20073;-73
2022/07/08 01:25:54;;;;;;;5.28;1.95;;;24.40;99.90;;;;;;4851210;29;20033;-78
2022/07/08 01:28:20;;;;;;;8.57;2.30;;;24.30;99.90;;;;;;4848151;29;20394;-79
2022/07/08 01:30:48;;;;;;;8.82;2.58;;;24.30;99.90;;;;;;4848870;29;20100;-73
2022/07/08 01:33:15;;;;;;;7.15;2.00;;;24.30;99.90;;;;;;4832698;29;20041;-74
2022/07/08 01:35:41;;;;;;;4.75;2.05;;;24.30;99.90;;;;;;4856270;29;20037;-73
2022/07/08 01:38:06;;;;;;;8.05;2.13;;;24.30;99.90;;;;;;4846466;29;20037;-74
2022/07/08 01:40:32;;;;;;;4.55;2.13;;;24.30;99.90;;;;;;4852275;29;20057;-74
2022/07/08 01:42:58;;;;;;;6.07;1.73;;;24.30;99.90;;;;;;4852916;29;20051;-77
2022/07/08 01:45:30;;;;;;;6.35;2.13;;;24.30;99.90;;;;;;4849483;29;20596;-75
2022/07/08 01:47:57;;;;;;;3.53;1.88;;;24.40;99.90;;;;;;4847470;29;20038;-74
2022/07/08 01:50:26;;;;;;;7.03;2.10;;;24.40;99.90;;;;;;4846000;29;20048;-74
2022/07/08 01:52:53;;;;;;;5.88;2.30;;;24.40;99.90;;;;;;4853533;29;20081;-74
2022/07/08 01:55:19;;;;;;;7.05;1.92;;;24.40;99.90;;;;;;4849931;29;20343;-76
2022/07/08 01:57:46;;;;;;;7.32;2.20;;;24.40;99.90;;;;;;4855568;29;20061;-77
2022/07/08 02:00:13;;;;;;;7.20;1.90;;;24.50;99.90;;;;;;4849517;29;20034;-74
2022/07/08 02:02:39;;;;;;;7.05;1.95;;;24.50;99.90;;;;;;4851754;29;20410;-74
2022/07/08 02:05:06;;;;;;;8.38;1.88;;;24.50;99.90;;;;;;4850289;29;20079;-74
2022/07/08 02:07:34;;;;;;;5.90;1.85;;;24.50;99.90;;;;;;4852840;29;20034;-76
2022/07/08 02:10:02;;;;;;;5.35;1.95;;;24.50;99.90;;;;;;4852175;29;20435;-74
2022/07/08 02:12:28;;;;;;;5.68;1.70;;;24.50;99.90;;;;;;4854823;29;20029;-77
2022/07/08 02:15:02;;;;;;;5.95;1.98;;;24.60;99.90;;;;;;4850073;29;20062;-74
2022/07/08 02:17:40;;;;;;;3.63;1.60;;;24.60;99.90;;;;;;4851270;29;20038;-74
2022/07/08 02:20:11;;;;;;;5.18;1.88;;;24.70;99.90;;;;;;4848062;29;20542;-74
2022/07/08 02:22:37;;;;;;;4.90;1.63;;;24.70;99.90;;;;;;4840734;29;20044;-78
2022/07/08 02:25:04;;;;;;;5.65;1.75;;;24.80;99.90;;;;;;4855452;29;20129;-75
2022/07/08 02:27:31;;;;;;;5.20;1.60;;;24.80;99.90;;;;;;4854513;29;20090;-76
2022/07/08 02:29:57;;;;;;;5.18;1.70;;;24.80;99.90;;;;;;4848515;29;20091;-77
2022/07/08 02:32:24;;;;;;;5.22;1.70;;;24.80;99.90;;;;;;4852462;29;20443;-75
2022/07/08 02:34:50;;;;;;;8.13;1.80;;;24.80;99.90;;;;;;4847885;29;20061;-79
2022/07/08 02:37:18;;;;;;;3.90;1.70;;;24.70;99.90;;;;;;4839466;29;20112;-75
2022/07/08 02:39:44;;;;;;;4.55;1.65;;;24.70;99.90;;;;;;4851286;29;20041;-78
2022/07/08 02:42:12;;;;;;;3.78;1.77;;;24.70;99.90;;;;;;4848584;29;20038;-75
2022/07/08 02:44:38;;;;;;;5.57;1.83;;;24.70;99.90;;;;;;4849002;29;20054;-76
2022/07/08 02:47:07;;;;;;;9.52;1.73;;;24.70;99.90;;;;;;4848470;29;20033;-74
2022/07/08 02:49:33;;;;;;;5.60;2.10;;;24.70;99.90;;;;;;4854909;29;20034;-77
2022/07/08 02:51:59;;;;;;;3.58;1.67;;;24.60;99.90;;;;;;4842686;29;20033;-75
2022/07/08 02:54:25;;;;;;;6.45;2.00;;;24.40;99.90;;;;;;4857846;29;20029;-74
2022/07/08 02:56:51;;;;;;;5.20;2.42;;;24.30;99.90;;;;;;4852466;29;20038;-77
2022/07/08 02:59:18;;;;;;;6.93;2.45;;;24.30;99.90;;;;;;4859547;29;20072;-74
2022/07/08 03:01:44;;;;;;;7.72;2.80;;;24.20;99.90;;;;;;4858864;29;20057;-74
2022/07/08 03:04:11;;;;;;;6.97;2.58;;;24.20;99.90;;;;;;4850805;29;20038;-78
2022/07/08 03:06:38;;;;;;;5.65;2.25;;;24.10;99.90;;;;;;4848893;29;20049;-75
2022/07/08 03:09:05;;;;;;;6.72;2.78;;;24.10;99.90;;;;;;4853728;29;20034;-75
2022/07/08 03:11:33;;;;;;;5.53;2.30;;;24.10;99.90;;;;;;4851392;29;20030;-75
2022/07/08 03:13:59;;;;;;;5.82;2.40;;;24.10;99.90;;;;;;4852767;29;20042;-79
2022/07/08 03:16:25;;;;;;;4.30;2.50;;;24.10;99.90;;;;;;4858705;29;20037;-74
2022/07/08 03:18:52;;;;;;;7.20;2.47;;;24.10;99.90;;;;;;4856093;29;20409;-74
2022/07/08 03:21:19;;;;;;;5.93;2.17;;;24.00;99.90;;;;;;4854432;29;20034;-76
2022/07/08 03:23:46;;;;;;;3.45;1.90;;;24.00;99.90;;;;;;4852827;29;20088;-73
2022/07/08 03:26:13;;;;;;;4.65;2.20;;;24.10;99.90;;;;;;4851437;29;20041;-78
2022/07/08 03:28:39;;;;;;;3.60;2.15;;;24.10;99.90;;;;;;4852978;29;20053;-73
2022/07/08 03:31:05;;;;;;;4.18;2.17;;;24.00;99.90;;;;;;4849849;29;20082;-77
2022/07/08 03:33:31;;;;;;;5.18;2.15;;;23.90;99.90;;;;;;4852695;29;20034;-74
2022/07/08 03:35:58;;;;;;;6.15;2.30;;;23.90;99.90;;;;;;4852757;29;20383;-74
2022/07/08 03:38:24;;;;;;;6.50;2.40;;;23.90;99.90;;;;;;4847620;29;20406;-78
2022/07/08 03:43:36;;;;;;;8.80;2.53;;;23.80;99.90;;;;;;4855709;29;20040;-76
2022/07/08 03:46:02;;;;;;;8.82;2.70;;;23.80;99.90;;;;;;4856385;29;20037;-75
2022/07/08 03:48:28;;;;;;;8.38;2.50;;;23.70;99.90;;;;;;4859639;29;20045;-74
2022/07/08 03:50:54;;;;;;;6.60;2.35;;;23.70;99.90;;;;;;4851818;29;20041;-74
2022/07/08 03:53:20;;;;;;;6.45;2.75;;;23.60;99.90;;;;;;4856163;29;20053;-81
2022/07/08 03:55:46;;;;;;;5.78;2.33;;;23.60;99.90;;;;;;4864741;29;20520;-75
2022/07/08 03:58:12;;;;;;;6.70;2.75;;;23.60;99.90;;;;;;4856848;29;20166;-74
2022/07/08 04:00:38;;;;;;;8.82;2.97;;;23.60;99.90;;;;;;4851503;29;20507;-74
2022/07/08 04:03:05;;;;;;;7.75;2.67;;;23.50;99.90;;;;;;4833893;29;20040;-80
2022/07/08 04:05:31;;;;;;;6.57;2.20;;;23.50;99.90;;;;;;4851396;29;20045;-74
2022/07/08 04:07:57;;;;;;;9.30;2.92;;;23.50;99.90;;;;;;4850678;29;20033;-74
2022/07/08 04:10:24;;;;;;;6.95;2.40;;;23.40;99.90;;;;;;4854303;29;20046;-79
2022/07/08 04:12:49;;;;;;;7.15;2.55;;;23.40;99.90;;;;;;4839087;29;20033;-75
2022/07/08 04:15:19;;;;;;;7.53;3.00;;;23.30;99.90;;;;;;4852790;29;20029;-74
2022/07/08 04:17:45;;;;;;;10.43;2.60;;;23.40;99.90;;;;;;4855905;29;20034;-74
2022/07/08 04:20:10;;;;;;;7.50;2.92;;;23.30;99.90;;;;;;4857326;29;20446;-74
2022/07/08 04:22:36;;;;;;;8.85;2.40;;;23.40;99.90;;;;;;4857550;29;20611;-78
2022/07/08 04:25:04;;;;;;;7.47;2.63;;;23.30;99.90;;;;;;4855986;29;20073;-75
2022/07/08 04:27:30;;;;;;;4.97;2.30;;;23.20;99.90;;;;;;4852659;29;20065;-74
2022/07/08 04:29:57;;;;;;;7.68;2.30;;;23.20;99.90;;;;;;4852243;29;20030;-79
2022/07/08 04:32:23;;;;;;;4.72;1.95;;;23.20;99.90;;;;;;4837551;29;20053;-74
2022/07/08 04:34:48;;;;;;;5.22;2.40;;;23.20;99.90;;;;;;4839579;29;20069;-76
2022/07/08 04:37:14;;;;;;;9.15;2.50;;;23.20;99.90;;;;;;4854054;29;20042;-78
2022/07/08 04:39:40;;;;;;;6.93;2.60;;;23.20;99.90;;;;;;4854669;29;20558;-80
2022/07/08 04:42:06;;;;;;;8.88;2.50;;;23.10;99.90;;;;;;4851676;29;20025;-75
2022/07/08 04:44:32;;;;;;;7.50;3.47;;;23.20;99.90;;;;;;4825635;29;20171;-74
2022/07/08 04:46:58;;;;;;;10.32;3.15;;;23.30;99.90;;;;;;4852257;29;20057;-76
2022/07/08 04:49:25;;;;;;;5.63;2.72;;;23.20;99.90;;;;;;4843878;29;20029;-80
2022/07/08 04:51:51;;;;;;;9.00;2.90;;;23.20;99.90;;;;;;4853248;29;20052;-73
2022/07/08 04:54:17;;;;;;;10.32;3.03;;;23.40;99.90;;;;;;4852877;29;20041;-79
2022/07/08 04:56:42;;;;;;;6.38;2.80;;;23.40;99.90;;;;;;4852046;29;20478;-77
2022/07/08 04:59:10;;;;;;;7.68;2.80;;;23.40;99.90;;;;;;4854512;29;20033;-75
2022/07/08 05:01:37;;;;;;;8.63;3.17;;;23.40;99.90;;;;;;4850933;29;20046;-74
2022/07/08 05:04:03;;;;;;;6.97;2.63;;;23.40;99.90;;;;;;4855804;29;20034;-73
2022/07/08 05:06:29;;;;;;;8.43;2.83;;;23.40;99.90;;;;;;4849702;29;20070;-75
2022/07/08 05:08:56;;;;;;;8.90;2.65;;;23.40;99.90;;;;;;4853097;29;20060;-74
2022/07/08 05:11:22;;;;;;;5.22;2.58;;;23.50;99.90;;;;;;4851724;29;20045;-75
2022/07/08 05:13:47;;;;;;;9.23;2.80;;;23.50;99.90;;;;;;4851109;29;20034;-74
2022/07/08 05:16:13;;;;;;;7.00;2.72;;;23.50;99.90;;;;;;4849391;29;20033;-74
2022/07/08 05:18:41;;;;;;;7.93;3.25;;;23.60;99.90;;;;;;4850288;29;20699;-77
2022/07/08 05:21:07;;;;;;;6.15;2.20;;;23.60;99.90;;;;;;4857597;29;20045;-74
2022/07/08 05:23:34;;;;;;;4.45;2.40;;;23.60;99.90;;;;;;4855069;29;20034;-79
2022/07/08 05:25:59;;;;;;;5.80;2.30;;;23.70;99.90;;;;;;4853541;29;20051;-75
2022/07/08 05:28:26;;;;;;;5.25;1.92;;;23.80;99.90;;;;;;4852871;29;20046;-75
2022/07/08 05:30:53;;;;;;;6.13;2.03;;;23.80;99.90;;;;;;4839121;29;20053;-75
2022/07/08 05:33:19;;;;;;;5.93;2.20;;;23.80;99.90;;;;;;4856271;29;20184;-75
2022/07/08 05:35:45;;;;;;;6.57;2.30;;;23.90;99.90;;;;;;4854855;29;20045;-78
2022/07/08 05:38:11;;;;;;;7.22;2.17;;;23.80;99.90;;;;;;4850674;29;20036;-74
2022/07/08 05:40:37;;;;;;;5.35;2.00;;;23.90;99.90;;;;;;4844644;29;20112;-73
2022/07/08 05:43:04;;;;;;;6.32;2.05;;;23.90;99.90;;;;;;4839111;29;20759;-74
2022/07/08 05:45:29;;;;;;;2.95;1.88;;;24.00;99.90;;;;;;4848246;29;20048;-79
2022/07/08 05:47:55;;;;;;;5.90;2.00;;;24.10;99.90;;;;;;4857524;29;20454;-75
2022/07/08 05:50:21;;;;;;;7.38;2.10;;;24.00;99.90;;;;;;4849933;29;20050;-75
2022/07/08 05:52:47;;;;;;;6.72;2.08;;;24.10;99.90;;;;;;4848585;29;20454;-77
2022/07/08 05:55:14;;;;;;;7.97;2.08;;;24.10;99.90;;;;;;4848828;29;20044;-77
2022/07/08 05:57:40;;;;;;;9.73;2.50;;;24.20;99.90;;;;;;4855270;29;20041;-75
2022/07/08 06:00:06;;;;;;;7.43;2.30;;;24.30;99.90;;;;;;4828122;29;20030;-74
2022/07/08 06:02:32;;;;;;;8.05;2.67;;;24.30;99.90;;;;;;4853861;29;20034;-77
2022/07/08 06:04:59;;;;;;;10.60;2.30;;;24.40;99.90;;;;;;4851296;29;20028;-74
2022/07/08 06:07:25;;;;;;;4.60;1.98;;;24.50;99.90;;;;;;4842120;29;20110;-74
2022/07/08 06:09:50;;;;;;;4.00;1.70;;;24.50;99.90;;;;;;4852764;29;20636;-75
2022/07/08 06:12:16;;;;;;;5.22;2.15;;;24.50;99.90;;;;;;4832463;29;20789;-76
2022/07/08 06:14:43;;;;;;;8.45;2.20;;;24.50;99.90;;;;;;4853379;29;20360;-74
2022/07/08 06:17:08;;;;;;;6.25;2.20;;;24.60;99.90;;;;;;4838291;29;20026;-74
2022/07/08 06:19:34;;;;;;;6.45;2.58;;;24.60;99.90;;;;;;4863165;29;20108;-77
2022/07/08 06:22:03;;;;;;;5.22;2.00;;;24.50;99.90;;;;;;4849649;29;20037;-75
2022/07/08 06:24:28;;;;;;;6.30;2.53;;;24.60;99.90;;;;;;4847284;29;20436;-77
2022/07/08 06:26:54;;;;;;;8.70;2.88;;;24.60;99.90;;;;;;4851306;29;20087;-77
2022/07/08 06:29:20;;;;;;;6.85;2.58;;;24.60;99.90;;;;;;4845498;29;20053;-75
2022/07/08 06:31:46;;;;;;;5.65;2.40;;;24.70;99.90;;;;;;4853595;29;20577;-74
2022/07/08 06:34:12;;;;;;;9.80;2.65;;;24.70;99.90;;;;;;4851945;29;20368;-72
2022/07/08 06:36:38;;;;;;;9.73;2.60;;;24.80;99.90;;;;;;4846077;29;20045;-77
2022/07/08 06:39:03;;;;;;;7.65;2.33;;;24.80;99.90;;;;;;4847619;29;20152;-76
2022/07/08 06:41:30;;;;;;;6.18;2.50;;;24.90;99.90;;;;;;4857432;29;20045;-76
2022/07/08 06:43:56;;;;;;;6.20;2.28;;;25.00;99.90;;;;;;4845015;29;20038;-73
2022/07/08 06:46:21;;;;;;;6.38;2.05;;;25.10;99.90;;;;;;4845624;29;20509;-74
2022/07/08 06:48:47;;;;;;;9.23;2.30;;;25.10;99.90;;;;;;4850235;29;20044;-76
2022/07/08 06:51:13;;;;;;;8.57;2.25;;;25.20;99.90;;;;;;4851444;29;20137;-77
2022/07/08 06:56:23;;;;;;;5.47;2.15;;;25.20;99.90;;;;;;4847265;29;20406;-75
2022/07/08 06:58:49;;;;;;;6.32;2.20;;;25.30;99.90;;;;;;4850172;29;20037;-76
2022/07/08 07:01:15;;;;;;;6.07;2.30;;;25.40;99.90;;;;;;4851240;29;20046;-74
2022/07/08 07:03:41;;;;;;;10.10;2.50;;;25.40;99.90;;;;;;4837153;29;20049;-73
2022/07/08 07:06:07;;;;;;;6.30;2.40;;;25.50;99.90;;;;;;4821103;29;20057;-75
2022/07/08 07:08:33;;;;;;;8.13;2.70;;;25.50;99.90;;;;;;4836131;29;20105;-73
2022/07/08 07:10:59;;;;;;;8.02;2.72;;;25.50;99.90;;;;;;4832962;29;20041;-74
2022/07/08 07:13:25;;;;;;;9.65;2.95;;;25.60;99.90;;;;;;4819301;29;20120;-76
2022/07/08 07:15:51;;;;;;;10.48;2.80;;;25.70;99.90;;;;;;4836198;29;20113;-76
2022/07/08 07:18:17;;;;;;;8.52;3.38;;;25.80;99.90;;;;;;4827222;29;20060;-74
2022/07/08 07:20:44;;;;;;;8.02;3.42;;;25.80;99.90;;;;;;4835918;29;20050;-74
2022/07/08 07:23:10;;;;;;;7.78;3.42;;;25.90;99.90;;;;;;4821674;29;20553;-79
2022/07/08 07:25:36;;;;;;;10.10;3.60;;;25.90;99.90;;;;;;4837655;29;20053;-77
2022/07/08 07:28:02;;;;;;;9.10;3.70;;;26.00;99.90;;;;;;4817195;29;20044;-76
2022/07/08 07:30:30;;;;;;;14.30;3.65;;;26.00;99.90;;;;;;4848900;29;20094;-73
2022/07/08 07:32:55;;;;;;;8.38;3.30;;;25.90;99.90;;;;;;4850171;29;20048;-76
2022/07/08 07:35:21;;;;;;;8.52;3.20;;;25.80;99.90;;;;;;4845830;29;20046;-76
2022/07/08 07:37:47;;;;;;;10.07;3.67;;;26.00;99.90;;;;;;4829140;29;20045;-74
2022/07/08 07:40:14;;;;;;;10.60;3.85;;;26.10;99.90;;;;;;4846018;29;20410;-74
2022/07/08 07:42:40;;;;;;;9.38;3.00;;;26.20;99.90;;;;;;4850845;29;20040;-76
2022/07/08 07:45:06;;;;;;;9.20;3.15;;;26.30;99.90;;;;;;4844261;29;20502;-77
2022/07/08 07:47:32;;;;;;;9.23;2.92;;;26.40;99.90;;;;;;4844943;29;20641;-74
2022/07/08 07:49:59;;;;;;;13.57;4.00;;;26.40;99.90;;;;;;4840205;29;20506;-73
2022/07/08 07:52:25;;;;;;;8.52;3.47;;;26.30;99.90;;;;;;4837216;29;20128;-74
2022/07/08 07:54:51;;;;;;;12.30;3.72;;;26.40;99.90;;;;;;4842625;29;20529;-74
2022/07/08 07:57:17;;;;;;;8.25;3.53;;;26.40;99.90;;;;;;4835477;29;20041;-78
2022/07/08 07:59:45;;;;;;;12.30;3.40;;;26.40;99.90;;;;;;4841174;29;20041;-74
2022/07/08 08:02:11;;;;;;;8.80;3.33;;;26.40;99.90;;;;;;4854267;29;20036;-75
2022/07/08 08:04:37;;;;;;;10.60;2.90;;;26.50;99.90;;;;;;4838060;29;20405;-76
2022/07/08 08:07:03;;;;;;;8.00;2.83;;;26.70;99.90;;;;;;4850829;29;20062;-74
2022/07/08 08:09:28;;;;;;;8.60;2.65;;;26.90;99.90;;;;;;4855324;29;20597;-75
2022/07/08 08:11:55;;;;;;;7.47;2.58;;;27.10;99.90;;;;;;4853747;29;20117;-78
2022/07/08 08:14:22;;;;;;;8.23;2.50;;;27.30;99.90;;;;;;4854288;29;20038;-77
2022/07/08 08:16:48;;;;;;;9.02;2.67;;;27.40;99.90;;;;;;4859158;29;20038;-75
2022/07/08 08:19:15;;;;;;;10.52;2.75;;;27.40;99.90;;;;;;4850275;29;20105;-76
2022/07/08 08:21:41;;;;;;;4.72;2.10;;;27.30;99.90;;;;;;4833238;29;20037;-76
2022/07/08 08:24:07;;;;;;;5.20;2.28;;;27.20;99.90;;;;;;4849218;29;20048;-74
2022/07/08 08:26:33;;;;;;;6.00;2.42;;;27.10;99.90;;;;;;4854747;29;20037;-75
2022/07/08 08:28:59;;;;;;;8.45;2.60;;;27.10;99.90;;;;;;4846734;29;20046;-76
2022/07/08 08:31:25;;;;;;;8.98;2.00;;;26.90;99.90;;;;;;4852038;29;20068;-76
2022/07/08 08:33:51;;;;;;;8.30;2.33;;;26.70;99.90;;;;;;4850956;29;20038;-75
2022/07/08 08:36:17;;;;;;;11.88;2.70;;;26.80;99.90;;;;;;4848265;29;20086;-75
2022/07/08 08:38:46;;;;;;;9.02;2.33;;;26.90;99.90;;;;;;4850976;29;20056;-80
2022/07/08 08:41:13;;;;;;;6.82;2.20;;;27.00;99.90;;;;;;4854176;29;20086;-76
2022/07/08 08:43:39;;;;;;;5.35;2.60;;;26.80;99.90;;;;;;4851953;29;20037;-72
2022/07/08 08:46:05;;;;;;;7.28;2.40;;;26.90;99.90;;;;;;4847322;29;20166;-73
2022/07/08 08:48:38;;;;;;;7.82;2.42;;;26.60;99.90;;;;;;4855973;29;20039;-76
2022/07/08 08:51:07;;;;;;;10.20;2.50;;;26.70;99.90;;;;;;4844766;29;20110;-77
2022/07/08 08:53:43;;;;;;;8.40;2.08;;;26.90;99.90;;;;;;4854354;29;20041;-78
2022/07/08 08:56:11;;;;;;;5.60;2.53;;;27.10;99.90;;;;;;4820694;29;20187;-76
2022/07/08 08:58:46;;;;;;;4.68;2.13;;;27.20;99.90;;;;;;4851651;29;20033;-78
2022/07/08 09:01:15;;;;;;;13.65;2.80;;;27.40;99.90;;;;;;4852203;29;20029;-74
2022/07/08 09:03:43;;;;;;;8.57;2.70;;;27.40;99.90;;;;;;4849196;29;20072;-75
2022/07/08 09:06:09;;;;;;;8.90;2.42;;;27.30;99.90;;;;;;4853228;29;20065;-77
2022/07/08 09:08:36;;;;;;;14.77;3.03;;;27.00;99.90;;;;;;4850338;29;20072;-76
2022/07/08 09:11:02;;;;;;;7.93;2.65;;;26.90;99.90;;;;;;4853758;29;20033;-75
2022/07/08 09:13:28;;;;;;;5.35;2.55;;;26.90;99.90;;;;;;4848189;29;20460;-79
2022/07/08 09:15:59;;;;;;;11.18;2.22;;;27.20;99.90;;;;;;4840923;29;20053;-74
2022/07/08 09:18:34;;;;;;;8.05;2.65;;;27.20;99.90;;;;;;4839106;29;20181;-75
2022/07/08 09:21:02;;;;;;;8.93;2.85;;;27.50;99.90;;;;;;4841468;29;20040;-76
2022/07/08 09:23:36;;;;;;;5.88;1.98;;;27.50;99.90;;;;;;4839027;29;22688;-74
2022/07/08 09:26:06;;;;;;;9.23;2.40;;;27.20;99.90;;;;;;4840216;29;20046;-74
2022/07/08 09:28:43;;;;;;;10.93;2.20;;;27.40;99.90;;;;;;4841537;29;20136;-73
2022/07/08 09:31:12;;;;;;;9.63;2.80;;;27.70;99.90;;;;;;4840650;29;20041;-74
2022/07/08 09:33:38;;;;;;;8.90;2.50;;;27.70;99.90;;;;;;4833004;29;23996;-79
2022/07/08 09:36:07;;;;;;;13.15;2.55;;;28.00;99.90;;;;;;4842658;29;20054;-75
2022/07/08 09:38:35;;;;;;;10.07;2.60;;;27.70;99.90;;;;;;4839417;29;20057;-78
2022/07/08 09:41:06;;;;;;;11.07;2.63;;;27.90;99.90;;;;;;4843888;29;20037;-77
2022/07/08 09:43:46;;;;;;;8.10;2.75;;;27.80;99.90;;;;;;4838977;29;20128;-75
2022/07/08 09:46:13;;;;;;;9.05;2.70;;;27.50;99.90;;;;;;4850244;29;20061;-75
2022/07/08 09:48:39;;;;;;;7.68;2.72;;;27.40;99.90;;;;;;4842690;29;20526;-79
2022/07/08 09:51:08;;;;;;;7.28;2.90;;;27.20;99.90;;;;;;4843092;29;20132;-80
2022/07/08 09:53:36;;;;;;;7.75;2.75;;;27.10;99.90;;;;;;4841633;29;20049;-80
2022/07/08 09:56:03;;;;;;;6.57;2.88;;;27.40;99.90;;;;;;4841995;29;20041;-74
2022/07/08 09:58:33;;;;;;;6.70;2.55;;;27.20;99.90;;;;;;4840626;29;20075;-79
2022/07/08 10:01:00;;;;;;;9.73;2.83;;;27.30;99.90;;;;;;4827492;29;20037;-77
2022/07/08 10:03:27;;;;;;;9.80;2.80;;;27.50;99.90;;;;;;4841864;29;20102;-73
2022/07/08 10:05:54;;;;;;;8.60;2.90;;;27.80;99.90;;;;;;4844926;29;20399;-78
2022/07/08 10:08:23;;;;;;;6.72;2.70;;;28.30;99.90;;;;;;4837325;29;20459;-75
2022/07/08 10:10:49;;;;;;;9.75;3.17;;;28.30;99.90;;;;;;4840639;29;20034;-74
2022/07/08 10:13:19;;;;;;;8.98;3.13;;;28.00;99.90;;;;;;4846777;29;20099;-74
2022/07/08 10:15:48;;;;;;;11.43;2.90;;;27.40;99.90;;;;;;4839335;29;20045;-74
2022/07/08 10:18:18;;;;;;;5.70;2.95;;;27.70;99.90;;;;;;4838650;29;20049;-73
2022/07/08 10:20:53;;;;;;;7.38;2.80;;;28.00;99.90;;;;;;4838207;29;20454;-75
2022/07/08 10:23:51;;;;;;;9.88;2.75;;;27.60;99.90;;;;;;4858600;29;20065;-79
2022/07/08 10:26:30;;;;;;;6.53;3.03;;;27.60;99.90;;;;;;4844328;29;20087;-74
2022/07/08 10:29:04;;;;;;;10.82;2.92;;;27.60;99.90;;;;;;4852167;29;20890;-74
2022/07/08 10:31:40;;;;;;;9.88;2.65;;;27.70;99.90;;;;;;4851191;29;20036;-76
2022/07/08 10:34:07;;;;;;;7.80;2.58;;;27.50;99.90;;;;;;4846113;29;20058;-78
2022/07/08 10:36:48;;;;;;;9.07;2.30;;;27.90;99.90;;;;;;4847779;29;20034;-74
2022/07/08 10:39:22;;;;;;;7.03;3.50;;;28.10;99.90;;;;;;4848146;29;20676;-73
2022/07/08 10:42:09;;;;;;;5.57;2.47;;;28.00;99.90;;;;;;4851785;29;20048;-73
2022/07/08 10:44:44;;;;;;;8.15;2.30;;;27.80;99.90;;;;;;4845889;29;20057;-74
2022/07/08 10:47:14;;;;;;;7.03;2.53;;;27.80;99.90;;;;;;4841420;29;20049;-79
2022/07/08 10:49:46;;;;;;;9.38;2.70;;;27.90;99.90;;;;;;4839658;29;20502;-78
2022/07/08 10:52:13;;;;;;;8.07;2.67;;;27.90;99.90;;;;;;4829018;29;20144;-73
2022/07/08 10:54:39;;;;;;;9.05;2.45;;;28.50;99.90;;;;;;4844542;29;20098;-79
2022/07/08 10:57:07;;;;;;;4.78;2.35;;;28.40;99.90;;;;;;4840666;29;20034;-74
2022/07/08 10:59:37;;;;;;;7.93;2.15;;;28.70;99.90;;;;;;4811785;29;20416;-74
2022/07/08 11:02:15;;;;;;;7.50;2.42;;;28.30;99.90;;;;;;4835852;29;20167;-76
2022/07/08 11:04:41;;;;;;;9.55;2.15;;;28.50;99.90;;;;;;4837714;29;20509;-77
2022/07/08 11:07:20;;;;;;;10.88;2.47;;;28.50;99.90;;;;;;4837943;29;20042;-76
2022/07/08 11:09:54;;;;;;;6.88;2.10;;;28.40;99.90;;;;;;4835869;29;20418;-77
2022/07/08 11:12:26;;;;;;;5.78;2.05;;;28.70;99.90;;;;;;4829824;29;20068;-78
2022/07/08 11:14:55;;;;;;;7.20;1.92;;;28.60;99.90;;;;;;4841663;29;20049;-75
2022/07/08 11:17:23;;;;;;;5.30;1.90;;;29.10;99.90;;;;;;4836908;29;20045;-75
2022/07/08 11:19:51;;;;;;;8.70;2.47;;;28.90;99.90;;;;;;4847822;29;20029;-77
2022/07/08 11:22:18;;;;;;;6.82;2.20;;;28.70;99.90;;;;;;4845107;29;20034;-75
2022/07/08 11:24:45;;;;;;;8.15;2.15;;;28.70;99.90;;;;;;4841091;29;20420;-76
2022/07/08 11:27:12;;;;;;;6.53;2.20;;;28.90;99.90;;;;;;4848994;29;20057;-76
2022/07/08 11:29:49;;;;;;;6.50;2.55;;;28.70;99.90;;;;;;4847331;29;20050;-79
2022/07/08 11:32:18;;;;;;;4.60;2.10;;;29.00;99.90;;;;;;4847306;29;20190;-80
2022/07/08 11:34:49;;;;;;;5.72;2.13;;;29.10;99.90;;;;;;4850039;29;20053;-79
2022/07/08 11:37:16;;;;;;;9.20;2.83;;;29.40;99.90;;;;;;4829004;29;20060;-76
2022/07/08 11:39:44;;;;;;;8.63;2.28;;;29.20;99.90;;;;;;4844284;29;20076;-75
2022/07/08 11:42:11;;;;;;;4.10;2.05;;;29.60;99.90;;;;;;4852170;29;20075;-78
2022/07/08 11:44:37;;;;;;;5.18;1.92;;;29.80;99.80;;;;;;4847032;29;20117;-76
2022/07/08 11:47:04;;;;;;;5.75;2.25;;;29.70;99.70;;;;;;4831120;29;20057;-80
2022/07/08 11:49:31;;;;;;;10.20;2.63;;;30.00;99.30;;;;;;4853277;29;20099;-76
2022/07/08 11:51:58;;;;;;;6.25;2.17;;;30.00;99.20;;;;;;4849581;29;20057;-81
2022/07/08 11:54:28;;;;;;;8.25;2.65;;;30.00;98.20;;;;;;4845028;29;20037;-78
2022/07/08 11:56:56;;;;;;;4.93;1.83;;;30.20;97.80;;;;;;4829708;29;20037;-73
2022/07/08 11:59:25;;;;;;;7.90;2.33;;;30.00;97.70;;;;;;4849053;29;20041;-80
2022/07/08 12:01:55;;;;;;;5.13;2.10;;;29.70;98.30;;;;;;4852735;29;20045;-76
2022/07/08 12:04:22;;;;;;;4.90;1.60;;;30.20;98.30;;;;;;4858372;29;20149;-79
2022/07/08 12:07:01;;;;;;;6.70;2.00;;;30.00;98.00;;;;;;4830466;29;20050;-76
2022/07/08 12:09:30;;;;;;;5.03;1.85;;;30.00;97.80;;;;;;4853831;29;20076;-77
2022/07/08 12:11:59;;;;;;;5.88;1.95;;;29.90;97.00;;;;;;4856960;29;20470;-77
2022/07/08 12:14:25;;;;;;;5.15;1.88;;;30.30;97.20;;;;;;4851548;29;20063;-76
2022/07/08 12:16:55;;;;;;;4.82;1.95;;;30.00;97.40;;;;;;4857610;29;20037;-77
2022/07/08 12:19:38;;;;;;;6.35;2.00;;;30.40;97.00;;;;;;4854188;29;20041;-76
2022/07/08 12:22:06;;;;;;;4.70;1.80;;;30.50;96.80;;;;;;4852915;29;20347;-82
2022/07/08 12:24:35;;;;;;;4.60;1.80;;;30.70;96.30;;;;;;4855334;29;20128;-77
2022/07/08 12:27:07;;;;;;;6.75;1.75;;;30.70;96.20;;;;;;4857213;29;20096;-76
2022/07/08 12:29:37;;;;;;;9.18;1.60;;;30.50;96.00;;;;;;4862071;29;20045;-75
2022/07/08 12:32:11;;;;;;;3.92;1.92;;;30.00;96.30;;;;;;4853165;29;20397;-77
2022/07/08 12:34:37;;;;;;;4.95;1.92;;;30.20;95.90;;;;;;4840130;29;20394;-77
2022/07/08 12:37:18;;;;;;;7.10;1.77;;;30.70;95.60;;;;;;4848402;29;20042;-77
2022/07/08 12:39:44;;;;;;;4.13;1.50;;;30.50;95.70;;;;;;4852762;29;20029;-77
2022/07/08 12:42:11;;;;;;;5.20;1.80;;;30.70;95.70;;;;;;4851615;29;20033;-82
2022/07/08 12:44:49;;;;;;;5.97;1.65;;;30.30;96.30;;;;;;4857198;29;20033;-76
2022/07/08 12:47:15;;;;;;;4.55;1.88;;;30.10;96.80;;;;;;4857658;29;20066;-77
2022/07/08 12:49:47;;;;;;;4.28;1.80;;;29.60;97.60;;;;;;4853738;29;20129;-76
2022/07/08 12:52:14;;;;;;;7.07;1.80;;;30.00;97.70;;;;;;4846901;29;20041;-76
2022/07/08 12:54:42;;;;;;;6.88;2.03;;;30.50;97.30;;;;;;4861107;29;20034;-81